This is the latest recevied weather packets stored in our database for station/object EA1GHG-11. If no packets are shown the sender has not sent any weather packets the latest 10 day(s).
| Time | Temp. | Humidity | Pressure | Rain* | Wind** | Luminosity | Snow |
|---|---|---|---|---|---|---|---|
| 1777755111 | 14.44° C | 100% | 1018.6 hPa | - | - | - | - |
| 1777753611 | 15° C | 100% | 1018.4 hPa | - | - | - | - |
| 1777752111 | 14.44° C | 100% | 1018.1 hPa | - | - | - | - |
| 1777750611 | 13.33° C | 100% | 1018 hPa | - | - | - | - |
| 1777749110 | 14.44° C | 100% | 1017.8 hPa | - | - | - | - |
| 1777747610 | 15° C | 100% | 1017.8 hPa | - | - | - | - |
| 1777746109 | 12.78° C | 100% | 1018 hPa | - | - | - | - |
| 1777745511 | 12.78° C | 100% | 1018 hPa | - | - | - | - |
| 1777744011 | 12.78° C | 100% | 1018.2 hPa | - | - | - | - |
| 1777742511 | 13.89° C | 100% | 1018.2 hPa | - | - | - | - |
| 1777741011 | 15.56° C | 100% | 1018 hPa | - | - | - | - |
| 1777739511 | 16.11° C | 100% | 1017.9 hPa | - | - | - | - |
| 1777738010 | 17.22° C | 100% | 1017.8 hPa | - | - | - | - |
| 1777736510 | 16.67° C | 100% | 1018 hPa | - | - | - | - |
| 1777735010 | 16.67° C | 100% | 1018.2 hPa | - | - | - | - |
| 1777733510 | 17.22° C | 100% | 1018.6 hPa | - | - | - | - |
| 1777732010 | 15° C | 100% | 1019 hPa | - | - | - | - |
| 1777730510 | 16.67° C | 100% | 1018.5 hPa | - | - | - | - |
| 1777729010 | 19.44° C | 100% | 1018.4 hPa | - | - | - | - |
| 1777727510 | 21.67° C | 95% | 1018.5 hPa | - | - | - | - |
| 1777726009 | 20.56° C | 100% | 1018.8 hPa | - | - | - | - |
| 1777724509 | 20° C | 100% | 1019 hPa | - | - | - | - |
| 1777723911 | 20.56° C | 100% | 1019 hPa | - | - | - | - |
| 1777722411 | 20° C | 100% | 1019.3 hPa | - | - | - | - |
| 1777720910 | 18.89° C | 100% | 1019.4 hPa | - | - | - | - |
* Rain since midnight (hover to see other rain measurements)
** Current wind speed in m/s (hover to see current wind gust speed)